Time;durP1;ratioP1;P1;durP2;ratioP2;P2;SDS_P1;SDS_P2;PMS_P1;PMS_P2;Temp;Humidity;BMP_temperature;BMP_pressure;BME280_temperature;BME280_humidity;BME280_pressure;Samples;Min_cycle;Max_cycle;Signal;HPM_P1;HPM_P2
2022/03/04 00:01:10;;;;;;;;;;;;;;;-3.16;68.36;94969.06;5136690;27;1059;-48
2022/03/04 00:03:37;;;;;;;;;;;;;;;-3.10;68.85;94969.66;5137211;27;1015;-49
2022/03/04 00:06:03;;;;;;;;;;;;;;;-2.99;68.19;94978.59;5136625;27;1353;-49
2022/03/04 00:08:29;;;;;;;;;;;;;;;-3.29;69.27;94981.09;5136762;27;1036;-48
2022/03/04 00:10:55;;;;;;;;;;;;;;;-3.15;69.23;94975.13;5136725;27;967;-49
2022/03/04 00:13:21;;;;;;;;;;;;;;;-2.96;68.66;94983.69;5136457;27;1099;-49
2022/03/04 00:15:47;;;;;;;;;;;;;;;-2.89;68.67;94978.09;5136409;27;1925;-48
2022/03/04 00:18:13;;;;;;;;;;;;;;;-2.82;68.74;94982.91;5136568;27;1024;-49
2022/03/04 00:20:39;;;;;;;;;;;;;;;-2.83;69.29;94981.22;5136403;27;1067;-49
2022/03/04 00:23:05;;;;;;;;;;;;;;;-2.77;68.27;94982.66;5136413;27;1115;-48
2022/03/04 00:25:31;;;;;;;;;;;;;;;-2.99;68.22;94980.41;5136581;27;1010;-48
2022/03/04 00:27:57;;;;;;;;;;;;;;;-3.23;68.66;94975.53;5136303;27;969;-49
2022/03/04 00:30:23;;;;;;;;;;;;;;;-3.11;69.80;94968.81;5136091;27;1103;-49
2022/03/04 00:32:49;;;;;;;;;;;;;;;-2.96;69.38;94964.50;5136491;27;1083;-49
2022/03/04 00:35:15;;;;;;;;;;;;;;;-3.01;68.97;94962.16;5136210;27;1066;-48
2022/03/04 00:37:41;;;;;;;;;;;;;;;-2.97;69.01;94955.81;5136262;27;1898;-49
2022/03/04 00:40:08;;;;;;;;;;;;;;;-2.99;69.34;94960.31;5136265;27;1027;-49
2022/03/04 00:42:34;;;;;;;;;;;;;;;-3.05;69.52;94965.88;5135865;27;1047;-48
2022/03/04 00:45:01;;;;;;;;;;;;;;;-3.02;69.17;94955.22;5136166;27;1016;-49
2022/03/04 00:47:26;;;;;;;;;;;;;;;-3.11;69.62;94953.13;5135796;27;1869;-49
2022/03/04 00:49:52;;;;;;;;;;;;;;;-3.16;69.57;94948.13;5135870;27;1040;-49
2022/03/04 00:52:18;;;;;;;;;;;;;;;-3.10;69.75;94946.13;5119011;27;1176;-48
2022/03/04 00:54:44;;;;;;;;;;;;;;;-3.03;69.79;94943.09;5115210;28;945;-49
2022/03/04 00:57:10;;;;;;;;;;;;;;;-3.09;69.56;94942.56;5115013;28;1901;-49
2022/03/04 00:59:36;;;;;;;;;;;;;;;-2.99;69.77;94944.59;5114836;28;1067;-48
2022/03/04 01:02:02;;;;;;;;;;;;;;;-2.97;69.67;94945.38;5114921;28;1032;-49
2022/03/04 01:04:28;;;;;;;;;;;;;;;-3.09;69.96;94951.28;5115249;28;999;-47
2022/03/04 01:06:54;;;;;;;;;;;;;;;-3.19;70.37;94947.47;5114665;28;1880;-49
2022/03/04 01:09:20;;;;;;;;;;;;;;;-3.29;70.57;94944.50;5115034;28;1059;-48
2022/03/04 01:11:46;;;;;;;;;;;;;;;-3.29;70.33;94944.50;5114457;28;971;-49
2022/03/04 01:14:12;;;;;;;;;;;;;;;-3.20;70.03;94941.38;5115227;28;1047;-49
2022/03/04 01:16:38;;;;;;;;;;;;;;;-3.19;70.06;94944.84;5114819;28;1910;-48
2022/03/04 01:19:05;;;;;;;;;;;;;;;-3.15;70.18;94935.91;5114906;28;1120;-49
2022/03/04 01:21:31;;;;;;;;;;;;;;;-3.01;69.67;94935.16;5114653;28;1056;-48
2022/03/04 01:23:57;;;;;;;;;;;;;;;-3.08;69.65;94934.63;5114742;28;980;-47
2022/03/04 01:26:23;;;;;;;;;;;;;;;-3.30;70.94;94928.88;5114804;28;995;-49
2022/03/04 01:28:49;;;;;;;;;;;;;;;-3.12;71.02;94933.13;5114833;28;976;-48
2022/03/04 01:31:15;;;;;;;;;;;;;;;-3.08;70.07;94924.19;5114629;28;1025;-49
2022/03/04 01:33:42;;;;;;;;;;;;;;;-2.96;69.91;94927.88;5114892;28;995;-48
2022/03/04 01:36:08;;;;;;;;;;;;;;;-2.85;69.91;94925.50;5114218;28;1895;-48
2022/03/04 01:38:34;;;;;;;;;;;;;;;-2.82;70.58;94924.53;5114423;28;1059;-49
2022/03/04 01:41:00;;;;;;;;;;;;;;;-2.79;70.09;94924.31;5114191;28;997;-49
2022/03/04 01:43:26;;;;;;;;;;;;;;;-2.82;69.63;94914.88;5114408;28;1027;-48
2022/03/04 01:45:52;;;;;;;;;;;;;;;-2.76;70.85;94924.16;5114452;28;949;-49
2022/03/04 01:48:21;;;;;;;;;;;;;;;-2.72;69.94;94919.59;5114417;28;983;-49
2022/03/04 01:50:48;;;;;;;;;;;;;;;-2.81;69.96;94910.50;5118284;27;1176;-49
2022/03/04 01:53:15;;;;;;;;;;;;;;;-2.85;69.73;94917.66;5134951;27;1048;-48
2022/03/04 01:55:41;;;;;;;;;;;;;;;-2.86;69.12;94913.38;5134617;27;1913;-48
2022/03/04 01:58:07;;;;;;;;;;;;;;;-3.20;70.12;94906.56;5134618;27;1044;-47
2022/03/04 02:00:33;;;;;;;;;;;;;;;-3.15;70.20;94909.75;5134564;27;1868;-49
2022/03/04 02:03:00;;;;;;;;;;;;;;;-3.06;69.96;94906.63;5134365;27;1052;-48
2022/03/04 02:05:26;;;;;;;;;;;;;;;-3.06;70.16;94903.19;5134878;27;941;-49
2022/03/04 02:07:52;;;;;;;;;;;;;;;-3.08;70.19;94912.88;5134171;27;1234;-49
2022/03/04 02:10:18;;;;;;;;;;;;;;;-3.01;70.14;94909.84;5133676;27;920;-49
2022/03/04 02:12:44;;;;;;;;;;;;;;;-3.08;69.90;94903.25;5134422;27;1022;-48
2022/03/04 02:15:10;;;;;;;;;;;;;;;-3.13;70.41;94894.81;5134523;27;1004;-48
2022/03/04 02:17:36;;;;;;;;;;;;;;;-3.21;70.20;94892.63;5134284;27;1910;-49
2022/03/04 02:20:03;;;;;;;;;;;;;;;-3.27;70.15;94892.13;5134320;27;1016;-49
2022/03/04 02:22:31;;;;;;;;;;;;;;;-3.17;70.17;94893.28;5134180;27;1035;-49
2022/03/04 02:24:57;;;;;;;;;;;;;;;-3.31;70.81;94898.47;5134459;27;984;-48
2022/03/04 02:27:23;;;;;;;;;;;;;;;-3.46;70.28;94893.13;5134204;27;1973;-49
2022/03/04 02:29:49;;;;;;;;;;;;;;;-3.43;70.47;94895.59;5134272;27;1007;-49
2022/03/04 02:32:15;;;;;;;;;;;;;;;-3.64;71.09;94902.81;5134250;27;1044;-49
2022/03/04 02:34:41;;;;;;;;;;;;;;;-3.53;71.09;94902.22;5134368;27;1036;-49
2022/03/04 02:37:07;;;;;;;;;;;;;;;-3.70;71.24;94907.50;5134214;27;1913;-49
2022/03/04 02:39:33;;;;;;;;;;;;;;;-3.68;71.25;94905.66;5134209;27;954;-48
2022/03/04 02:41:59;;;;;;;;;;;;;;;-3.58;71.47;94905.09;5134033;27;1024;-48
2022/03/04 02:44:25;;;;;;;;;;;;;;;-3.49;70.82;94898.53;5134241;28;1157;-48
2022/03/04 02:46:51;;;;;;;;;;;;;;;-3.78;71.22;94893.06;5133162;28;1038;-48
2022/03/04 02:49:17;;;;;;;;;;;;;;;-3.81;71.69;94898.47;5134108;27;1018;-49
2022/03/04 02:51:43;;;;;;;;;;;;;;;-3.68;71.57;94901.28;5122239;28;1168;-47
2022/03/04 02:54:09;;;;;;;;;;;;;;;-3.62;71.77;94900.94;5113328;28;1019;-48
2022/03/04 02:56:35;;;;;;;;;;;;;;;-3.61;70.77;94905.25;5113678;28;1972;-48
2022/03/04 02:59:01;;;;;;;;;;;;;;;-3.62;71.43;94895.72;5113174;28;1095;-48
2022/03/04 03:01:27;;;;;;;;;;;;;;;-3.53;71.39;94896.97;5113598;28;999;-48
2022/03/04 03:03:53;;;;;;;;;;;;;;;-3.38;71.25;94898.81;5113202;28;1082;-48
2022/03/04 03:06:19;;;;;;;;;;;;;;;-3.51;70.78;94900.34;5113553;28;1102;-48
2022/03/04 03:08:45;;;;;;;;;;;;;;;-3.43;70.90;94898.19;5113089;28;1040;-48
2022/03/04 03:11:12;;;;;;;;;;;;;;;-3.42;69.61;94899.03;5113661;28;1043;-48
2022/03/04 03:13:38;;;;;;;;;;;;;;;-3.63;70.46;94903.63;5113197;28;987;-48
2022/03/04 03:16:04;;;;;;;;;;;;;;;-3.62;70.75;94898.34;5111993;28;1993;-48
2022/03/04 03:18:30;;;;;;;;;;;;;;;-3.52;70.33;94901.31;5113202;28;1023;-48
2022/03/04 03:20:56;;;;;;;;;;;;;;;-3.57;70.58;94903.31;5113736;28;1184;-48
2022/03/04 03:23:21;;;;;;;;;;;;;;;-3.58;71.49;94892.03;5116903;28;1047;-48
2022/03/04 03:25:47;;;;;;;;;;;;;;;-3.45;70.67;94893.97;5117000;28;1032;-48
2022/03/04 03:28:13;;;;;;;;;;;;;;;-3.53;70.32;94897.84;5117075;28;1043;-48
2022/03/04 03:30:40;;;;;;;;;;;;;;;-3.83;70.80;94907.28;5117087;28;957;-49
2022/03/04 03:33:06;;;;;;;;;;;;;;;-3.96;70.97;94901.91;5117022;28;987;-49
2022/03/04 03:35:32;;;;;;;;;;;;;;;-3.88;71.65;94902.31;5116921;28;1913;-49
2022/03/04 03:37:58;;;;;;;;;;;;;;;-3.81;71.45;94903.69;5116571;28;1976;-49
2022/03/04 03:40:24;;;;;;;;;;;;;;;-3.78;71.16;94910.53;5117066;28;1004;-49
2022/03/04 03:42:50;;;;;;;;;;;;;;;-4.00;70.83;94908.19;5116667;28;1011;-49
2022/03/04 03:45:16;;;;;;;;;;;;;;;-4.07;72.29;94906.81;5116834;28;1067;-49
2022/03/04 03:47:42;;;;;;;;;;;;;;;-3.89;71.30;94894.56;5116707;28;1024;-48
2022/03/04 03:50:10;;;;;;;;;;;;;;;-3.74;71.09;94898.97;5116461;28;952;-49
2022/03/04 03:52:36;;;;;;;;;;;;;;;-3.73;70.82;94904.13;5136010;27;1157;-49
2022/03/04 03:55:03;;;;;;;;;;;;;;;-3.95;70.80;94906.19;5136989;27;1043;-47
2022/03/04 03:57:29;;;;;;;;;;;;;;;-3.89;71.94;94905.00;5137187;27;1910;-49
2022/03/04 03:59:55;;;;;;;;;;;;;;;-3.78;71.82;94902.69;5136809;27;1011;-47
2022/03/04 04:02:21;;;;;;;;;;;;;;;-4.02;71.13;94912.63;5137269;27;1039;-49
2022/03/04 04:04:47;;;;;;;;;;;;;;;-3.99;72.00;94900.25;5136614;27;1127;-48
2022/03/04 04:07:13;;;;;;;;;;;;;;;-3.99;71.14;94915.94;5136592;27;1079;-49
2022/03/04 04:09:39;;;;;;;;;;;;;;;-4.06;71.36;94918.94;5136928;27;973;-49
2022/03/04 04:12:06;;;;;;;;;;;;;;;-3.99;71.37;94907.25;5136766;27;1020;-49
2022/03/04 04:14:32;;;;;;;;;;;;;;;-4.06;71.90;94917.19;5136577;27;1278;-48
2022/03/04 04:16:58;;;;;;;;;;;;;;;-3.99;71.70;94913.31;5136605;27;1906;-47
2022/03/04 04:19:24;;;;;;;;;;;;;;;-4.10;70.36;94915.63;5136733;27;1139;-47
2022/03/04 04:21:51;;;;;;;;;;;;;;;-4.31;71.56;94909.75;5136641;27;1214;-48
2022/03/04 04:24:17;;;;;;;;;;;;;;;-4.33;71.88;94914.19;5136539;27;1043;-47
2022/03/04 04:26:44;;;;;;;;;;;;;;;-4.09;71.58;94904.28;5136449;27;1024;-48
2022/03/04 04:29:10;;;;;;;;;;;;;;;-3.94;72.16;94913.94;5136343;27;1047;-48
2022/03/04 04:31:36;;;;;;;;;;;;;;;-3.88;70.97;94909.31;5136472;27;1043;-48
2022/03/04 04:34:02;;;;;;;;;;;;;;;-4.02;70.49;94912.63;5135215;27;968;-47
2022/03/04 04:36:28;;;;;;;;;;;;;;;-4.42;71.54;94909.44;5136207;27;1910;-49
2022/03/04 04:38:54;;;;;;;;;;;;;;;-4.37;72.03;94923.94;5136302;27;1027;-48
2022/03/04 04:41:21;;;;;;;;;;;;;;;-4.17;72.03;94916.91;5136398;27;1039;-48
2022/03/04 04:43:47;;;;;;;;;;;;;;;-4.35;71.22;94923.88;5135852;27;945;-48
2022/03/04 04:46:13;;;;;;;;;;;;;;;-4.71;71.71;94901.28;5135963;27;1051;-47
2022/03/04 04:48:39;;;;;;;;;;;;;;;-4.65;72.48;94908.81;5136353;27;995;-48
2022/03/04 04:51:05;;;;;;;;;;;;;;;-4.58;72.25;94920.66;5129234;27;1152;-47
2022/03/04 04:53:32;;;;;;;;;;;;;;;-4.39;72.24;94915.34;5115383;28;1011;-47
2022/03/04 04:55:58;;;;;;;;;;;;;;;-4.35;71.62;94910.81;5115296;28;1988;-47
2022/03/04 04:58:24;;;;;;;;;;;;;;;-4.45;72.07;94910.44;5115160;28;1107;-48
2022/03/04 05:00:53;;;;;;;;;;;;;;;-4.34;71.69;94910.75;5115065;28;1012;-47
2022/03/04 05:03:23;;;;;;;;;;;;;;;-4.33;70.92;94911.59;5115215;28;980;-47
2022/03/04 05:05:49;;;;;;;;;;;;;;;-4.32;71.18;94915.91;5114645;28;1103;-48
2022/03/04 05:08:16;;;;;;;;;;;;;;;-4.33;71.41;94916.81;5115393;28;1020;-48
2022/03/04 05:10:42;;;;;;;;;;;;;;;-4.20;71.31;94917.88;5115081;28;956;-48
2022/03/04 05:13:08;;;;;;;;;;;;;;;-4.02;70.77;94918.72;5114623;28;1076;-48
2022/03/04 05:15:34;;;;;;;;;;;;;;;-4.12;71.67;94926.19;5115034;28;2007;-48
2022/03/04 05:18:00;;;;;;;;;;;;;;;-3.96;70.68;94925.41;5114782;28;1245;-48
2022/03/04 05:20:26;;;;;;;;;;;;;;;-3.91;71.12;94923.38;5114617;27;1119;-47
2022/03/04 05:22:52;;;;;;;;;;;;;;;-3.92;70.81;94925.16;5115037;28;996;-47
2022/03/04 05:25:18;;;;;;;;;;;;;;;-3.85;70.27;94928.31;5114638;28;941;-48
2022/03/04 05:27:44;;;;;;;;;;;;;;;-4.11;69.96;94924.41;5114752;28;1063;-48
2022/03/04 05:30:11;;;;;;;;;;;;;;;-4.42;70.95;94927.72;5114614;28;1024;-48
2022/03/04 05:32:37;;;;;;;;;;;;;;;-4.53;71.36;94921.28;5114892;28;1031;-47
2022/03/04 05:35:03;;;;;;;;;;;;;;;-4.37;72.00;94931.78;5114308;28;972;-48
2022/03/04 05:37:29;;;;;;;;;;;;;;;-4.08;70.77;94931.22;5114704;28;1913;-47
2022/03/04 05:39:56;;;;;;;;;;;;;;;-3.95;70.26;94924.47;5114244;28;1063;-48
2022/03/04 05:42:21;;;;;;;;;;;;;;;-3.70;70.70;94925.78;5114465;28;972;-47
2022/03/04 05:44:47;;;;;;;;;;;;;;;-3.43;69.91;94934.78;5114154;28;953;-47
2022/03/04 05:47:13;;;;;;;;;;;;;;;-3.04;69.10;94927.47;5114421;28;984;-48
2022/03/04 05:49:40;;;;;;;;;;;;;;;-2.69;68.62;94937.72;5114340;28;1038;-49
2022/03/04 05:52:06;;;;;;;;;;;;;;;-2.63;68.20;94933.00;5128895;27;1226;-47
2022/03/04 05:54:33;;;;;;;;;;;;;;;-2.39;67.90;94938.63;5135014;27;973;-48
2022/03/04 05:56:59;;;;;;;;;;;;;;;-2.40;67.57;94943.94;5134277;27;1990;-49
2022/03/04 05:59:25;;;;;;;;;;;;;;;-2.16;67.04;94944.31;5134857;27;996;-48
2022/03/04 06:01:51;;;;;;;;;;;;;;;-1.54;65.24;94940.66;5134691;27;1047;-48
2022/03/04 06:04:17;;;;;;;;;;;;;;;-0.86;63.38;94939.94;5134538;27;941;-49
2022/03/04 06:06:43;;;;;;;;;;;;;;;0.19;61.39;94937.44;5134432;27;1103;-48
2022/03/04 06:09:09;;;;;;;;;;;;;;;0.60;59.54;94940.00;5134550;27;1004;-49
2022/03/04 06:11:35;;;;;;;;;;;;;;;1.30;57.17;94937.66;5134775;27;972;-48
2022/03/04 06:14:02;;;;;;;;;;;;;;;1.08;58.21;94943.63;5134461;27;976;-49
2022/03/04 06:16:28;;;;;;;;;;;;;;;1.49;57.68;94941.59;5132976;27;1991;-48
2022/03/04 06:18:54;;;;;;;;;;;;;;;1.90;54.84;94948.28;5134550;27;1035;-49
2022/03/04 06:21:20;;;;;;;;;;;;;;;2.38;54.19;94937.63;5134547;27;973;-49
2022/03/04 06:23:46;;;;;;;;;;;;;;;3.03;52.82;94938.78;5134304;27;1035;-49
2022/03/04 06:26:13;;;;;;;;;;;;;;;3.97;51.11;94936.56;5134076;27;1107;-49
2022/03/04 06:28:39;;;;;;;;;;;;;;;4.35;48.52;94935.19;5134403;27;973;-48
2022/03/04 06:31:05;;;;;;;;;;;;;;;4.92;47.58;94924.25;5134302;27;1051;-49
2022/03/04 06:33:35;;;;;;;;;;;;;;;4.72;47.94;94934.72;5134235;28;1152;-48
2022/03/04 06:36:09;;;;;;;;;;;;;;;6.71;43.39;94933.06;5134192;27;1917;-49
2022/03/04 06:38:36;;;;;;;;;;;;;;;8.76;38.94;94930.94;5134577;27;1047;-51
2022/03/04 06:41:02;;;;;;;;;;;;;;;8.57;38.58;94925.75;5134141;27;979;-49
2022/03/04 06:43:28;;;;;;;;;;;;;;;6.59;42.14;94927.91;5134058;27;1055;-48
2022/03/04 06:45:54;;;;;;;;;;;;;;;7.81;40.44;94924.34;5133885;27;1040;-49
2022/03/04 06:48:22;;;;;;;;;;;;;;;8.96;39.17;94939.53;5134339;27;940;-49
2022/03/04 06:50:49;;;;;;;;;;;;;;;9.26;38.12;94933.88;5129907;28;1163;-50
2022/03/04 06:53:15;;;;;;;;;;;;;;;7.32;40.80;94943.25;5113876;28;1011;-49
2022/03/04 06:55:41;;;;;;;;;;;;;;;8.10;39.91;94940.13;5113367;28;1910;-49
2022/03/04 06:58:07;;;;;;;;;;;;;;;11.93;33.88;94938.09;5117246;28;1554;-49
2022/03/04 07:00:33;;;;;;;;;;;;;;;12.62;32.20;94941.72;5117566;28;1000;-47
2022/03/04 07:03:00;;;;;;;;;;;;;;;10.64;34.90;94943.38;5116030;28;1049;-46
2022/03/04 07:05:26;;;;;;;;;;;;;;;8.72;38.05;94940.19;5117522;28;1064;-46
2022/03/04 07:07:53;;;;;;;;;;;;;;;8.01;40.28;94943.69;5116975;28;1374;-46
2022/03/04 07:10:19;;;;;;;;;;;;;;;8.08;40.24;94943.91;5117383;28;1107;-46
2022/03/04 07:12:46;;;;;;;;;;;;;;;7.79;40.18;94942.28;5116908;28;1011;-46
2022/03/04 07:15:12;;;;;;;;;;;;;;;8.53;39.81;94940.38;5117535;28;1059;-46
2022/03/04 07:17:38;;;;;;;;;;;;;;;9.17;38.95;94941.84;5116976;28;1909;-46
2022/03/04 07:20:05;;;;;;;;;;;;;;;9.76;37.42;94946.47;5117149;28;1983;-46
2022/03/04 07:22:30;;;;;;;;;;;;;;;10.26;37.49;94940.28;5117255;28;1036;-46
2022/03/04 07:24:56;;;;;;;;;;;;;;;12.65;32.68;94945.88;5117090;28;1860;-46
2022/03/04 07:27:22;;;;;;;;;;;;;;;12.25;33.17;94943.28;5117174;28;1044;-46
2022/03/04 07:29:48;;;;;;;;;;;;;;;13.97;31.25;94945.47;5116953;28;1120;-46
2022/03/04 07:32:14;;;;;;;;;;;;;;;14.64;29.93;94949.78;5116944;28;961;-47
2022/03/04 07:34:40;;;;;;;;;;;;;;;14.43;30.06;94954.06;5117135;28;1040;-47
2022/03/04 07:37:06;;;;;;;;;;;;;;;14.04;30.09;94954.47;5116554;28;1983;-47
2022/03/04 07:39:32;;;;;;;;;;;;;;;14.03;30.57;94953.59;5116858;28;1051;-47
2022/03/04 07:42:01;;;;;;;;;;;;;;;13.57;30.74;94945.75;5116285;28;916;-47
2022/03/04 07:44:27;;;;;;;;;;;;;;;14.75;28.71;94961.91;5116994;28;969;-47
2022/03/04 07:46:53;;;;;;;;;;;;;;;15.01;29.05;94961.34;5116362;28;965;-46
2022/03/04 07:49:19;;;;;;;;;;;;;;;15.66;29.17;94958.53;5116698;28;1083;-46
2022/03/04 07:51:45;;;;;;;;;;;;;;;13.44;31.12;94942.88;5128479;27;1172;-49
2022/03/04 07:54:11;;;;;;;;;;;;;;;13.97;29.40;94946.28;5137223;27;977;-49
2022/03/04 07:56:37;;;;;;;;;;;;;;;16.89;26.60;94954.13;5136894;27;1918;-47
2022/03/04 07:59:03;;;;;;;;;;;;;;;18.59;25.22;94953.50;5136992;27;952;-47
2022/03/04 08:01:29;;;;;;;;;;;;;;;15.69;26.75;94942.81;5137199;27;941;-47
2022/03/04 08:03:55;;;;;;;;;;;;;;;15.86;26.56;94951.44;5136955;27;1085;-47
2022/03/04 08:06:21;;;;;;;;;;;;;;;14.90;28.20;94943.00;5136708;27;1230;-47
2022/03/04 08:08:47;;;;;;;;;;;;;;;12.97;31.03;94942.09;5135198;27;1087;-47
2022/03/04 08:11:13;;;;;;;;;;;;;;;11.91;33.09;94938.25;5136800;27;984;-47
2022/03/04 08:13:39;;;;;;;;;;;;;;;10.21;35.22;94942.59;5136467;27;1071;-46
2022/03/04 08:16:05;;;;;;;;;;;;;;;8.84;37.91;94930.16;5136442;27;1905;-46
2022/03/04 08:18:31;;;;;;;;;;;;;;;7.38;41.33;94920.50;5136819;27;1035;-46
2022/03/04 08:20:57;;;;;;;;;;;;;;;7.27;41.63;94918.91;5136674;27;961;-46
2022/03/04 08:23:23;;;;;;;;;;;;;;;7.16;41.50;94925.22;5136706;27;991;-46
2022/03/04 08:25:49;;;;;;;;;;;;;;;7.52;41.77;94922.69;5136446;27;984;-46
2022/03/04 08:28:15;;;;;;;;;;;;;;;9.56;37.71;94927.19;5136642;27;1059;-47
2022/03/04 08:30:41;;;;;;;;;;;;;;;12.48;32.06;94926.38;5134549;27;2826;-48
2022/03/04 08:33:07;;;;;;;;;;;;;;;13.62;31.08;94924.56;5136020;27;1123;-48
2022/03/04 08:35:33;;;;;;;;;;;;;;;14.27;29.35;94922.06;5136629;27;1019;-48
2022/03/04 08:38:00;;;;;;;;;;;;;;;14.96;28.17;94926.09;5136523;27;1975;-48
2022/03/04 08:40:26;;;;;;;;;;;;;;;18.41;25.46;94927.13;5136215;27;1106;-48
2022/03/04 08:42:52;;;;;;;;;;;;;;;19.56;23.20;94928.03;5136008;27;978;-48
2022/03/04 08:45:18;;;;;;;;;;;;;;;20.80;22.39;94928.78;5136069;27;1007;-48
2022/03/04 08:47:44;;;;;;;;;;;;;;;20.88;21.72;94938.47;5135686;27;1071;-48
2022/03/04 08:50:12;;;;;;;;;;;;;;;21.20;20.72;94925.47;5136235;27;1019;-49
2022/03/04 08:52:38;;;;;;;;;;;;;;;22.09;20.25;94921.06;5135733;27;1152;-48
2022/03/04 08:55:05;;;;;;;;;;;;;;;24.26;18.62;94917.34;5135865;27;932;-48
2022/03/04 08:57:31;;;;;;;;;;;;;;;25.30;17.84;94928.44;5135587;27;1913;-48
2022/03/04 08:59:57;;;;;;;;;;;;;;;25.24;17.52;94924.00;5134468;27;1071;-48
2022/03/04 09:02:23;;;;;;;;;;;;;;;25.64;17.27;94923.53;5135767;27;961;-49
2022/03/04 09:04:50;;;;;;;;;;;;;;;24.04;18.37;94927.44;5135598;27;1032;-49
2022/03/04 09:07:16;;;;;;;;;;;;;;;22.44;19.39;94920.19;5135647;27;1222;-47
2022/03/04 09:09:43;;;;;;;;;;;;;;;20.01;21.65;94915.09;5135552;27;1023;-48
2022/03/04 09:12:09;;;;;;;;;;;;;;;17.52;25.02;94901.56;5135702;27;1031;-47
2022/03/04 09:14:36;;;;;;;;;;;;;;;15.73;26.85;94910.91;5135331;27;1098;-47
2022/03/04 09:17:02;;;;;;;;;;;;;;;14.75;27.94;94906.22;5135540;27;1910;-47
2022/03/04 09:19:30;;;;;;;;;;;;;;;14.06;28.22;94904.84;5135001;27;995;-47
2022/03/04 09:21:56;;;;;;;;;;;;;;;13.89;29.70;94905.25;5135470;27;1027;-47
2022/03/04 09:24:23;;;;;;;;;;;;;;;13.66;29.09;94904.34;5135467;27;960;-47
2022/03/04 09:26:49;;;;;;;;;;;;;;;13.72;28.99;94908.16;5135281;27;1027;-47
2022/03/04 09:29:15;;;;;;;;;;;;;;;13.86;28.34;94898.41;5134972;27;1052;-48
2022/03/04 09:31:41;;;;;;;;;;;;;;;14.22;29.82;94895.72;5135055;27;1028;-47
2022/03/04 09:34:07;;;;;;;;;;;;;;;14.59;29.53;94901.13;5135281;27;1084;-49
2022/03/04 09:36:33;;;;;;;;;;;;;;;14.42;28.18;94895.13;5135033;27;1984;-48
2022/03/04 09:38:59;;;;;;;;;;;;;;;13.98;29.44;94899.59;5133920;27;1011;-48
2022/03/04 09:41:25;;;;;;;;;;;;;;;13.50;28.71;94895.66;5135018;27;1893;-47
2022/03/04 09:43:53;;;;;;;;;;;;;;;12.21;31.21;94895.56;5134728;27;1016;-47
2022/03/04 09:46:21;;;;;;;;;;;;;;;11.44;31.29;94890.88;5134864;27;1199;-47
2022/03/04 09:48:50;;;;;;;;;;;;;;;10.64;33.73;94895.25;5134977;27;965;-47
2022/03/04 09:51:16;;;;;;;;;;;;;;;10.01;35.42;94890.47;5134747;27;1176;-47
2022/03/04 09:53:43;;;;;;;;;;;;;;;9.76;35.88;94885.91;5134630;27;1873;-47
2022/03/04 09:56:09;;;;;;;;;;;;;;;9.76;36.10;94885.06;5135030;27;1989;-47
2022/03/04 09:58:37;;;;;;;;;;;;;;;10.63;34.11;94882.88;5134757;27;1000;-47
2022/03/04 10:01:10;;;;;;;;;;;;;;;11.38;34.20;94873.66;5134916;27;1036;-47
2022/03/04 10:03:44;;;;;;;;;;;;;;;12.03;33.19;94869.91;5134713;27;1122;-47
2022/03/04 10:09:36;;;;;;;;;;;;;;;12.26;32.57;94864.53;3923740;27;2083;-47
2022/03/04 10:12:03;;;;;;;;;;;;;;;12.41;32.76;94858.41;5134618;27;999;-47
2022/03/04 10:14:29;;;;;;;;;;;;;;;12.13;32.65;94861.63;5134385;27;1007;-47
2022/03/04 10:16:56;;;;;;;;;;;;;;;12.15;30.67;94853.41;5134273;27;1910;-47
2022/03/04 10:19:23;;;;;;;;;;;;;;;12.18;32.61;94839.63;5134272;27;1059;-47
2022/03/04 10:21:51;;;;;;;;;;;;;;;12.17;32.72;94838.81;5134609;27;964;-47
2022/03/04 10:24:19;;;;;;;;;;;;;;;12.12;33.32;94838.50;5134464;27;995;-47
2022/03/04 10:26:45;;;;;;;;;;;;;;;12.40;33.08;94830.75;5134491;27;1028;-47
2022/03/04 10:29:21;;;;;;;;;;;;;;;12.32;33.53;94832.69;5134177;27;1039;-47
2022/03/04 10:32:06;;;;;;;;;;;;;;;12.78;32.34;94816.50;5133671;27;995;-48
2022/03/04 10:34:44;;;;;;;;;;;;;;;12.81;32.42;94818.84;5134345;27;1029;-47
2022/03/04 10:37:11;;;;;;;;;;;;;;;12.07;32.13;94812.25;5134166;27;1902;-47
2022/03/04 10:39:55;;;;;;;;;;;;;;;12.05;32.71;94816.97;5134083;27;1866;-47
2022/03/04 10:42:36;;;;;;;;;;;;;;;12.18;32.54;94819.06;5134286;27;1020;-47
2022/03/04 10:45:07;;;;;;;;;;;;;;;12.53;33.80;94808.69;5134251;27;1048;-47
2022/03/04 10:47:39;;;;;;;;;;;;;;;12.75;32.36;94808.81;5134090;27;1067;-47
2022/03/04 10:50:06;;;;;;;;;;;;;;;12.93;32.16;94806.63;5134192;27;973;-47
2022/03/04 10:52:32;;;;;;;;;;;;;;;12.87;32.81;94808.19;5115744;27;1207;-47
2022/03/04 10:54:58;;;;;;;;;;;;;;;12.98;31.46;94809.59;5113197;28;1874;-47
2022/03/04 10:57:24;;;;;;;;;;;;;;;13.24;31.73;94808.28;5113402;28;1901;-46
2022/03/04 10:59:56;;;;;;;;;;;;;;;13.21;31.90;94806.00;5113577;28;1072;-48
2022/03/04 11:02:58;;;;;;;;;;;;;;;13.48;31.46;94810.72;5112448;28;1005;-47
2022/03/04 11:05:24;;;;;;;;;;;;;;;13.41;31.83;94809.81;5090496;28;1256;-47
2022/03/04 11:07:50;;;;;;;;;;;;;;;12.35;32.07;94798.31;5108726;28;1027;-47
2022/03/04 11:10:17;;;;;;;;;;;;;;;11.56;34.71;94790.44;5113183;28;1217;-47
2022/03/04 11:12:44;;;;;;;;;;;;;;;11.14;34.11;94789.81;5113267;28;988;-47
2022/03/04 11:15:11;;;;;;;;;;;;;;;11.24;35.84;94797.63;5113528;28;1032;-47
2022/03/04 11:17:38;;;;;;;;;;;;;;;11.56;34.22;94782.41;5113450;28;1909;-47
2022/03/04 11:20:07;;;;;;;;;;;;;;;11.60;32.81;94789.09;5113279;28;1023;-47
2022/03/04 11:22:34;;;;;;;;;;;;;;;10.99;33.62;94786.19;5112317;28;1127;-46
2022/03/04 11:25:02;;;;;;;;;;;;;;;10.64;34.05;94780.28;5113313;28;1028;-47
2022/03/04 11:27:29;;;;;;;;;;;;;;;10.81;34.58;94774.88;5113175;28;1020;-47
2022/03/04 11:29:58;;;;;;;;;;;;;;;11.07;32.73;94777.28;5112887;28;1049;-47
2022/03/04 11:32:28;;;;;;;;;;;;;;;11.37;32.97;94772.97;5113063;28;1061;-47
2022/03/04 11:34:54;;;;;;;;;;;;;;;11.52;33.40;94767.72;5112853;28;1036;-47
2022/03/04 11:37:21;;;;;;;;;;;;;;;11.41;34.24;94763.59;5113061;28;1906;-47
2022/03/04 11:40:02;;;;;;;;;;;;;;;11.30;34.69;94763.97;5112958;28;1031;-47
2022/03/04 11:42:38;;;;;;;;;;;;;;;10.73;35.86;94760.50;5113804;28;1099;-47
2022/03/04 11:45:06;;;;;;;;;;;;;;;10.69;36.66;94758.38;5116312;28;1008;-47
2022/03/04 11:47:43;;;;;;;;;;;;;;;10.90;37.66;94755.94;5116962;28;964;-47
2022/03/04 11:50:36;;;;;;;;;;;;;;;10.94;36.97;94756.44;5116502;28;1016;-47
2022/03/04 11:53:12;;;;;;;;;;;;;;;11.00;37.34;94755.75;5114542;28;1204;-48
2022/03/04 11:55:38;;;;;;;;;;;;;;;10.90;38.40;94752.44;5116323;28;1015;-47
2022/03/04 11:58:04;;;;;;;;;;;;;;;11.21;38.03;94746.28;5116335;28;1902;-47
2022/03/04 12:00:31;;;;;;;;;;;;;;;11.36;38.43;94752.56;5116525;27;999;-47
2022/03/04 12:03:00;;;;;;;;;;;;;;;11.00;39.61;94749.56;5116681;28;1032;-48
2022/03/04 12:05:30;;;;;;;;;;;;;;;10.41;40.29;94750.72;5116531;28;1024;-48
2022/03/04 12:07:56;;;;;;;;;;;;;;;10.89;40.43;94745.44;5116354;28;1057;-47
2022/03/04 12:10:26;;;;;;;;;;;;;;;10.95;40.59;94742.06;5115911;28;1147;-47
2022/03/04 12:13:12;;;;;;;;;;;;;;;10.93;39.73;94738.75;5116328;28;1021;-47
2022/03/04 12:15:39;;;;;;;;;;;;;;;10.54;40.04;94732.31;5101967;28;1668;-47
2022/03/04 12:18:06;;;;;;;;;;;;;;;10.48;40.57;94734.88;5116033;28;1901;-47
2022/03/04 12:20:37;;;;;;;;;;;;;;;10.57;40.07;94722.28;5115853;28;1011;-47
2022/03/04 12:23:07;;;;;;;;;;;;;;;10.66;39.73;94726.63;5116281;28;1044;-46
2022/03/04 12:25:55;;;;;;;;;;;;;;;10.44;37.49;94721.00;5116076;28;1044;-46
2022/03/04 12:28:22;;;;;;;;;;;;;;;10.19;39.55;94724.69;5115950;28;1083;-47
2022/03/04 12:31:00;;;;;;;;;;;;;;;10.22;39.40;94716.34;5115630;28;1187;-48
2022/03/04 12:33:26;;;;;;;;;;;;;;;10.02;39.51;94719.38;5115820;28;1103;-46
2022/03/04 12:35:57;;;;;;;;;;;;;;;10.13;40.98;94721.69;5114486;28;1914;-47
2022/03/04 12:38:24;;;;;;;;;;;;;;;10.20;39.94;94721.84;5114683;28;1304;-47
2022/03/04 12:40:50;;;;;;;;;;;;;;;10.37;39.87;94724.53;5115740;28;984;-47
2022/03/04 12:43:15;;;;;;;;;;;;;;;10.55;40.09;94730.50;5115788;28;960;-47
2022/03/04 12:45:42;;;;;;;;;;;;;;;10.42;39.91;94720.34;5115559;28;1048;-47
2022/03/04 12:48:08;;;;;;;;;;;;;;;10.33;40.40;94722.19;5115802;28;949;-47
2022/03/04 12:50:35;;;;;;;;;;;;;;;10.18;40.72;94723.84;5117620;27;1177;-47
2022/03/04 12:53:17;;;;;;;;;;;;;;;10.24;41.05;94725.84;5135842;27;910;-47
2022/03/04 12:55:48;;;;;;;;;;;;;;;10.08;40.42;94725.88;5135610;27;992;-47
2022/03/04 12:58:13;;;;;;;;;;;;;;;9.87;40.33;94731.75;5135781;27;1165;-47
2022/03/04 13:00:39;;;;;;;;;;;;;;;9.93;40.21;94731.06;5135695;27;1043;-48
2022/03/04 13:03:20;;;;;;;;;;;;;;;9.93;39.70;94731.06;5135849;27;980;-48